createdAt,value
2018-12-27T00:02:06.424Z,24.67
2018-12-27T00:04:34.581Z,25.03
2018-12-27T00:07:01.593Z,22.07
2018-12-27T00:09:28.671Z,23.83
2018-12-27T00:11:55.629Z,22.87
2018-12-27T00:14:22.545Z,25.17
2018-12-27T00:16:50.655Z,23.73
2018-12-27T00:19:17.463Z,28.80
2018-12-27T00:21:44.495Z,22.87
2018-12-27T00:24:11.463Z,25.47
2018-12-27T00:26:40.053Z,27.03
2018-12-27T00:29:07.138Z,26.50
2018-12-27T00:31:34.043Z,26.13
2018-12-27T00:34:01.021Z,27.37
2018-12-27T00:36:27.754Z,25.40
2018-12-27T00:38:54.557Z,21.67
2018-12-27T00:41:21.450Z,24.10
2018-12-27T00:43:50.150Z,22.67
2018-12-27T00:46:18.420Z,22.67
2018-12-27T00:48:45.445Z,20.43
2018-12-27T00:51:14.295Z,21.43
2018-12-27T00:53:41.083Z,21.10
2018-12-27T00:56:07.988Z,22.90
2018-12-27T00:58:34.937Z,19.53
2018-12-27T01:01:02.864Z,19.33
2018-12-27T01:03:29.777Z,22.30
2018-12-27T01:05:56.518Z,17.43
2018-12-27T01:08:23.357Z,15.67
2018-12-27T01:10:50.319Z,18.37
2018-12-27T01:13:17.390Z,16.00
2018-12-27T01:15:44.325Z,20.20
2018-12-27T01:18:11.355Z,17.27
2018-12-27T01:24:18.856Z,21.73
2018-12-27T01:26:45.651Z,17.43
2018-12-27T01:29:12.475Z,16.23
2018-12-27T01:31:39.465Z,16.37
2018-12-27T01:34:06.363Z,15.43
2018-12-27T01:36:33.414Z,16.97
2018-12-27T01:39:01.566Z,18.03
2018-12-27T01:41:28.318Z,17.07
2018-12-27T01:43:55.321Z,17.53
2018-12-27T01:46:22.303Z,19.90
2018-12-27T01:48:49.141Z,19.73
2018-12-27T01:51:15.908Z,17.40
2018-12-27T01:53:42.760Z,18.67
2018-12-27T01:56:10.132Z,19.50
2018-12-27T01:58:37.023Z,21.03
2018-12-27T02:01:04.047Z,16.93
2018-12-27T02:03:32.895Z,16.40
2018-12-27T02:05:59.900Z,16.57
2018-12-27T02:08:26.835Z,15.70
2018-12-27T02:10:53.607Z,16.07
2018-12-27T02:13:20.395Z,18.23
2018-12-27T02:15:47.425Z,18.90
2018-12-27T02:18:16.175Z,16.87
2018-12-27T02:20:42.907Z,20.70
2018-12-27T02:23:09.900Z,20.03
2018-12-27T02:25:49.125Z,20.50
2018-12-27T02:28:15.936Z,18.57
2018-12-27T02:30:42.962Z,18.87
2018-12-27T02:33:09.682Z,19.23
2018-12-27T02:35:36.603Z,22.43
2018-12-27T02:38:03.350Z,21.27
2018-12-27T02:40:30.148Z,21.63
2018-12-27T02:42:56.920Z,23.10
2018-12-27T02:45:23.625Z,23.57
2018-12-27T02:47:50.416Z,22.53
2018-12-27T02:50:17.219Z,25.23
2018-12-27T02:52:44.161Z,21.77
2018-12-27T02:55:11.116Z,24.70
2018-12-27T02:57:38.040Z,25.60
2018-12-27T03:00:04.920Z,21.40
2018-12-27T03:02:31.950Z,23.77
2018-12-27T03:04:58.893Z,21.17
2018-12-27T03:07:25.709Z,23.07
2018-12-27T03:09:52.888Z,27.03
2018-12-27T03:12:19.805Z,25.07
2018-12-27T03:14:46.754Z,24.23
2018-12-27T03:17:13.596Z,24.87
2018-12-27T03:19:40.462Z,26.73
2018-12-27T03:22:07.277Z,24.50
2018-12-27T03:24:34.251Z,23.93
2018-12-27T03:27:01.265Z,23.37
2018-12-27T03:29:27.963Z,27.80
2018-12-27T03:31:54.881Z,22.00
2018-12-27T03:34:23.639Z,22.43
2018-12-27T03:36:50.512Z,21.50
2018-12-27T03:39:17.421Z,22.20
2018-12-27T03:41:44.352Z,23.53
2018-12-27T03:44:11.083Z,24.17
2018-12-27T03:46:37.927Z,20.30
2018-12-27T03:49:04.677Z,23.07
2018-12-27T03:51:31.430Z,20.73
2018-12-27T03:53:58.882Z,23.90
2018-12-27T03:56:25.724Z,23.17
2018-12-27T03:58:52.553Z,22.73
2018-12-27T04:01:19.341Z,24.63
2018-12-27T04:03:46.192Z,22.67
2018-12-27T04:06:13.221Z,22.87
2018-12-27T04:08:40.118Z,22.97
2018-12-27T04:11:06.854Z,23.17
2018-12-27T04:13:33.683Z,23.73
2018-12-27T04:16:01.058Z,22.90
2018-12-27T04:18:28.422Z,23.80
2018-12-27T04:20:56.770Z,22.57
2018-12-27T04:23:23.944Z,20.43
2018-12-27T04:25:51.268Z,22.93
2018-12-27T04:28:18.190Z,21.33
2018-12-27T04:30:45.214Z,25.90
2018-12-27T04:33:13.703Z,24.87
2018-12-27T04:35:40.804Z,25.60
2018-12-27T04:38:07.769Z,24.27
2018-12-27T04:40:34.663Z,21.67
2018-12-27T04:43:01.609Z,21.60
2018-12-27T04:45:28.637Z,21.17
2018-12-27T04:47:55.673Z,19.83
2018-12-27T04:50:22.539Z,20.87
2018-12-27T04:52:49.362Z,23.87
2018-12-27T04:55:16.314Z,20.73
2018-12-27T04:57:43.341Z,21.83
2018-12-27T05:00:10.182Z,17.17
2018-12-27T05:02:37.366Z,19.53
2018-12-27T05:05:04.309Z,18.23
2018-12-27T05:07:31.132Z,17.33
2018-12-27T05:09:58.158Z,14.23
2018-12-27T05:12:25.200Z,16.00
2018-12-27T05:14:52.111Z,16.60
2018-12-27T05:17:19.180Z,13.93
2018-12-27T05:19:48.757Z,14.23
2018-12-27T05:22:15.755Z,14.50
2018-12-27T05:24:42.677Z,15.30
2018-12-27T05:27:09.866Z,18.80
2018-12-27T05:29:36.770Z,16.50
2018-12-27T05:32:04.754Z,19.87
2018-12-27T05:34:31.593Z,15.70
2018-12-27T05:37:00.886Z,17.63
2018-12-27T05:39:27.923Z,16.87
2018-12-27T05:41:54.788Z,18.17
2018-12-27T05:44:21.721Z,18.67
2018-12-27T05:46:48.858Z,18.30
2018-12-27T05:49:15.840Z,18.30
2018-12-27T05:51:42.743Z,18.40
2018-12-27T05:54:09.867Z,17.07
2018-12-27T05:56:38.735Z,20.33
2018-12-27T05:59:05.766Z,16.50
2018-12-27T06:01:34.644Z,18.37
2018-12-27T06:04:01.681Z,17.23
2018-12-27T06:06:28.677Z,17.63
2018-12-27T06:08:55.598Z,19.07
2018-12-27T06:11:22.573Z,19.80
2018-12-27T06:13:49.466Z,18.90
2018-12-27T06:16:16.368Z,22.03
2018-12-27T06:18:43.412Z,19.17
2018-12-27T06:21:10.497Z,24.27
2018-12-27T06:23:37.305Z,22.90
2018-12-27T06:26:04.144Z,21.67
2018-12-27T06:28:31.125Z,20.27
2018-12-27T06:30:58.092Z,22.33
2018-12-27T06:33:25.084Z,42.07
2018-12-27T06:35:52.042Z,21.40
2018-12-27T06:38:18.925Z,21.37
2018-12-27T06:40:45.910Z,21.20
2018-12-27T06:43:12.928Z,24.30
2018-12-27T06:45:39.780Z,23.10
2018-12-27T06:48:06.767Z,21.90
2018-12-27T06:50:33.710Z,24.83
2018-12-27T06:53:02.587Z,20.27
2018-12-27T06:55:29.585Z,22.83
2018-12-27T06:57:56.749Z,22.13
2018-12-27T07:00:24.998Z,22.07
2018-12-27T07:02:52.019Z,20.67
2018-12-27T07:05:19.009Z,18.43
2018-12-27T07:07:46.169Z,19.53
2018-12-27T07:10:13.284Z,20.10
2018-12-27T07:12:40.323Z,25.90
2018-12-27T07:15:07.398Z,20.33
2018-12-27T07:17:34.389Z,22.00
2018-12-27T07:20:01.517Z,19.17
2018-12-27T07:22:28.517Z,19.67
2018-12-27T07:24:55.560Z,21.33
2018-12-27T07:27:22.497Z,22.23
2018-12-27T07:29:49.641Z,18.60
2018-12-27T07:32:22.518Z,17.90
2018-12-27T07:34:56.283Z,22.13
2018-12-27T07:37:18.475Z,20.60
2018-12-27T07:39:45.492Z,22.17
2018-12-27T07:42:12.535Z,18.73
2018-12-27T07:44:39.636Z,17.30
2018-12-27T07:47:07.209Z,18.57
2018-12-27T07:49:34.310Z,19.93
2018-12-27T07:52:01.279Z,17.40
2018-12-27T07:54:28.405Z,19.90
2018-12-27T07:56:57.490Z,18.40
2018-12-27T07:59:24.435Z,17.00
2018-12-27T08:01:51.425Z,18.20
2018-12-27T08:04:18.517Z,17.87
2018-12-27T08:06:45.555Z,16.73
2018-12-27T08:09:12.456Z,14.43
2018-12-27T08:11:39.534Z,14.67
2018-12-27T08:14:06.649Z,13.63
2018-12-27T08:16:33.533Z,12.10
2018-12-27T08:19:00.925Z,12.00
2018-12-27T08:21:29.850Z,11.40
2018-12-27T08:23:56.976Z,11.07
2018-12-27T08:26:23.939Z,14.13
2018-12-27T08:28:52.164Z,13.60
2018-12-27T08:31:19.308Z,14.47
2018-12-27T08:33:46.377Z,16.53
2018-12-27T08:36:13.400Z,16.17
2018-12-27T08:38:40.467Z,16.43
2018-12-27T08:41:07.368Z,18.37
2018-12-27T08:43:34.445Z,21.23
2018-12-27T08:46:01.796Z,22.60
2018-12-27T08:48:30.072Z,23.03
2018-12-27T08:50:57.175Z,22.90
2018-12-27T08:53:24.259Z,22.97
2018-12-27T08:55:51.412Z,27.33
2018-12-27T08:58:18.591Z,20.03
2018-12-27T09:00:45.715Z,20.37
2018-12-27T09:03:12.771Z,22.50
2018-12-27T09:05:39.739Z,19.07
2018-12-27T09:08:06.592Z,20.47
2018-12-27T09:10:33.557Z,19.73
2018-12-27T09:13:00.471Z,17.50
2018-12-27T09:15:27.400Z,15.50
2018-12-27T09:17:54.339Z,15.43
2018-12-27T09:20:21.277Z,15.80
2018-12-27T09:22:48.851Z,17.80
2018-12-27T09:25:16.021Z,18.07
2018-12-27T09:27:44.807Z,15.40
2018-12-27T09:30:11.911Z,16.00
2018-12-27T09:32:38.990Z,16.13
2018-12-27T09:35:06.074Z,13.70
2018-12-27T09:37:33.553Z,17.90
2018-12-27T09:40:00.961Z,15.83
2018-12-27T09:42:27.957Z,13.37
2018-12-27T09:44:55.007Z,14.23
2018-12-27T09:47:21.986Z,15.87
2018-12-27T09:49:49.058Z,12.53
2018-12-27T09:52:16.105Z,12.53
2018-12-27T09:54:43.060Z,13.93
2018-12-27T09:57:11.742Z,13.67
2018-12-27T09:59:38.769Z,14.00
2018-12-27T10:02:05.787Z,15.00
2018-12-27T10:04:32.848Z,14.37
2018-12-27T10:06:59.929Z,12.37
2018-12-27T10:09:27.027Z,13.23
2018-12-27T10:11:54.092Z,13.67
2018-12-27T10:14:21.340Z,13.80
2018-12-27T10:16:59.999Z,13.83
2018-12-27T10:19:27.034Z,12.70
2018-12-27T10:21:54.161Z,12.30
2018-12-27T10:24:21.159Z,13.43
2018-12-27T10:26:48.210Z,17.77
2018-12-27T10:29:17.081Z,16.93
2018-12-27T10:31:44.179Z,14.00
2018-12-27T10:34:11.239Z,12.63
2018-12-27T10:36:38.326Z,13.47
2018-12-27T10:39:09.923Z,19.17
2018-12-27T10:41:37.043Z,19.47
2018-12-27T10:44:04.144Z,26.23
2018-12-27T10:46:33.072Z,22.20
2018-12-27T10:49:00.981Z,12.53
2018-12-27T10:51:28.061Z,13.73
2018-12-27T10:53:55.286Z,10.23
2018-12-27T10:56:23.527Z,8.53
2018-12-27T10:58:50.523Z,7.83
2018-12-27T11:01:17.544Z,7.10
2018-12-27T11:03:44.638Z,6.43
2018-12-27T11:06:11.646Z,4.13
2018-12-27T11:08:38.724Z,8.10
2018-12-27T11:11:06.037Z,6.37
2018-12-27T11:13:34.195Z,4.33
2018-12-27T11:16:01.239Z,5.23
2018-12-27T11:18:28.538Z,7.97
2018-12-27T11:20:55.656Z,6.97
2018-12-27T11:23:22.500Z,5.67
2018-12-27T11:25:49.326Z,5.17
2018-12-27T11:28:16.269Z,5.00
2018-12-27T11:30:43.097Z,5.37
2018-12-27T11:33:10.321Z,5.07
2018-12-27T11:35:37.371Z,5.87
2018-12-27T11:38:04.207Z,4.53
2018-12-27T11:40:46.049Z,5.13
2018-12-27T11:43:13.089Z,7.40
2018-12-27T11:45:40.187Z,8.07
2018-12-27T11:48:08.678Z,8.07
2018-12-27T11:50:35.737Z,6.60
2018-12-27T11:53:02.698Z,5.30
2018-12-27T11:55:29.765Z,7.60
2018-12-27T11:57:57.015Z,6.10
2018-12-27T12:00:25.059Z,6.47
2018-12-27T12:02:52.209Z,6.10
2018-12-27T12:05:19.471Z,6.13
2018-12-27T12:07:46.516Z,6.50
2018-12-27T12:10:13.564Z,7.70
2018-12-27T12:12:40.738Z,6.93
2018-12-27T12:15:08.055Z,9.70
2018-12-27T12:17:35.004Z,6.77
2018-12-27T12:20:02.039Z,7.27
2018-12-27T12:22:31.074Z,7.50
2018-12-27T12:24:58.114Z,6.93
2018-12-27T12:27:25.178Z,5.87
2018-12-27T12:29:52.278Z,5.77
2018-12-27T12:32:19.301Z,4.80
2018-12-27T12:34:46.288Z,5.40
2018-12-27T12:37:14.170Z,4.10
2018-12-27T12:39:41.618Z,4.43
2018-12-27T12:42:08.572Z,5.07
2018-12-27T12:44:35.586Z,4.37
2018-12-27T12:47:02.726Z,4.43
2018-12-27T12:49:29.748Z,5.03
2018-12-27T12:51:56.703Z,5.13
2018-12-27T12:54:23.735Z,3.60
2018-12-27T12:56:50.741Z,3.97
2018-12-27T12:59:17.720Z,4.03
2018-12-27T13:01:44.759Z,3.80
2018-12-27T13:04:11.919Z,3.73
2018-12-27T13:06:38.994Z,5.30
2018-12-27T13:09:07.081Z,3.70
2018-12-27T13:11:34.111Z,3.63
2018-12-27T13:14:01.013Z,3.87
2018-12-27T13:16:28.155Z,4.67
2018-12-27T13:18:55.143Z,4.53
2018-12-27T13:21:22.217Z,4.57
2018-12-27T13:23:49.278Z,5.10
2018-12-27T13:26:16.174Z,4.57
2018-12-27T13:28:43.195Z,4.13
2018-12-27T13:31:10.270Z,4.00
2018-12-27T13:33:37.288Z,5.70
2018-12-27T13:36:04.868Z,5.33
2018-12-27T13:38:31.848Z,6.20
2018-12-27T13:40:58.958Z,7.80
2018-12-27T13:43:27.204Z,6.17
2018-12-27T13:45:54.300Z,7.23
2018-12-27T13:48:21.211Z,8.47
2018-12-27T13:50:48.485Z,10.90
2018-12-27T13:53:16.927Z,10.37
2018-12-27T13:55:49.079Z,8.70
2018-12-27T13:58:21.068Z,11.23
2018-12-27T14:00:53.226Z,9.60
2018-12-27T14:03:33.067Z,11.67
2018-12-27T14:06:05.075Z,9.17
2018-12-27T14:08:38.053Z,11.43
2018-12-27T14:11:06.606Z,9.57
2018-12-27T14:13:41.908Z,9.37
2018-12-27T14:16:10.620Z,10.87
2018-12-27T14:18:37.623Z,10.17
2018-12-27T14:21:04.933Z,9.17
2018-12-27T14:23:36.586Z,8.10
2018-12-27T14:26:08.008Z,7.77
2018-12-27T14:28:36.386Z,9.30
2018-12-27T14:31:09.151Z,9.03
2018-12-27T14:33:54.144Z,7.97
2018-12-27T14:36:21.167Z,8.10
2018-12-27T14:38:48.289Z,6.27
2018-12-27T14:41:17.109Z,6.53
2018-12-27T14:43:44.062Z,7.60
2018-12-27T14:46:11.012Z,7.60
2018-12-27T14:48:44.355Z,6.77
2018-12-27T14:51:16.465Z,7.27
2018-12-27T14:53:45.684Z,6.63
2018-12-27T14:56:13.918Z,7.27
2018-12-27T14:58:45.687Z,6.40
2018-12-27T15:01:12.882Z,7.13
2018-12-27T15:03:40.384Z,8.03
2018-12-27T15:06:47.969Z,8.47
2018-12-27T15:09:15.599Z,7.90
2018-12-27T15:11:46.943Z,5.73
2018-12-27T15:14:14.494Z,5.50
2018-12-27T15:16:48.459Z,9.43
2018-12-27T15:19:28.076Z,10.07
2018-12-27T15:22:01.331Z,10.17
2018-12-27T15:24:35.231Z,11.10
2018-12-27T15:27:06.367Z,12.73
2018-12-27T15:29:33.379Z,10.93
2018-12-27T15:32:00.420Z,10.77
2018-12-27T15:34:27.351Z,8.53
2018-12-27T15:36:54.668Z,9.27
2018-12-27T15:39:23.624Z,11.97
2018-12-27T15:41:50.599Z,11.33
2018-12-27T15:44:17.476Z,9.80
2018-12-27T15:46:44.436Z,9.27
2018-12-27T15:49:11.360Z,11.03
2018-12-27T15:51:38.313Z,12.10
2018-12-27T15:54:05.294Z,13.03
2018-12-27T15:56:32.300Z,11.63
2018-12-27T15:58:59.257Z,13.17
2018-12-27T16:01:26.323Z,12.17
2018-12-27T16:04:05.228Z,10.93
2018-12-27T16:06:34.425Z,11.73
2018-12-27T16:09:04.672Z,9.50
2018-12-27T16:12:26.220Z,10.77
2018-12-27T16:14:53.029Z,8.30
2018-12-27T16:17:20.079Z,9.93
2018-12-27T16:19:48.393Z,7.50
2018-12-27T16:22:17.620Z,11.13
2018-12-27T16:24:51.158Z,8.37
2018-12-27T16:27:37.688Z,6.60
2018-12-27T16:30:07.793Z,8.10
2018-12-27T16:32:35.324Z,8.07
2018-12-27T16:35:04.461Z,6.33
2018-12-27T16:37:33.247Z,9.03
2018-12-27T16:40:01.604Z,6.20
2018-12-27T16:42:30.067Z,5.50
2018-12-27T16:45:14.205Z,8.90
2018-12-27T16:47:41.442Z,5.77
2018-12-27T16:50:09.419Z,6.13
2018-12-27T16:53:10.993Z,7.23
2018-12-27T16:55:44.042Z,6.37
2018-12-27T16:58:15.236Z,8.13
2018-12-27T17:00:44.995Z,6.93
2018-12-27T17:03:14.730Z,6.53
2018-12-27T17:05:44.477Z,6.80
2018-12-27T17:08:12.231Z,7.67
2018-12-27T17:10:39.240Z,7.60
2018-12-27T17:13:06.313Z,8.17
2018-12-27T17:15:35.614Z,9.53
2018-12-27T17:18:02.579Z,7.87
2018-12-27T17:20:29.702Z,7.80
2018-12-27T17:23:04.534Z,7.77
2018-12-27T17:26:16.030Z,8.57
2018-12-27T17:28:43.207Z,8.47
2018-12-27T17:31:10.146Z,9.53
2018-12-27T17:33:37.166Z,7.10
2018-12-27T17:36:03.986Z,7.80
2018-12-27T17:38:30.907Z,8.13
2018-12-27T17:40:57.827Z,9.33
2018-12-27T17:43:24.834Z,7.97
2018-12-27T17:45:51.660Z,7.87
2018-12-27T17:48:18.875Z,7.50
2018-12-27T17:50:47.119Z,7.60
2018-12-27T17:53:14.129Z,6.77
2018-12-27T17:55:41.245Z,5.20
2018-12-27T17:58:08.195Z,7.50
2018-12-27T18:00:35.255Z,9.80
2018-12-27T18:03:02.933Z,10.60
2018-12-27T18:05:30.188Z,9.13
2018-12-27T18:07:57.286Z,11.27
2018-12-27T18:10:26.608Z,12.70
2018-12-27T18:12:53.575Z,10.53
2018-12-27T18:15:20.677Z,11.37
2018-12-27T18:17:47.618Z,9.80
2018-12-27T18:20:15.246Z,13.17
2018-12-27T18:22:42.265Z,14.13
2018-12-27T18:25:09.287Z,12.80
2018-12-27T18:27:36.287Z,15.73
2018-12-27T18:30:03.697Z,17.60
2018-12-27T18:32:30.584Z,19.17
2018-12-27T18:34:57.415Z,18.60
2018-12-27T18:37:24.298Z,23.63
2018-12-27T18:39:51.295Z,19.80
2018-12-27T18:42:18.109Z,14.43
2018-12-27T18:44:45.079Z,13.77
2018-12-27T18:47:19.428Z,11.71
2018-12-27T18:49:46.542Z,14.90
2018-12-27T18:52:13.363Z,12.30
2018-12-27T18:54:40.375Z,10.90
2018-12-27T18:57:07.429Z,9.90
2018-12-27T18:59:34.243Z,9.40
2018-12-27T19:02:01.262Z,10.47
2018-12-27T19:04:28.193Z,10.10
2018-12-27T19:06:55.215Z,9.57
2018-12-27T19:09:22.227Z,10.43
2018-12-27T19:12:25.849Z,12.17
2018-12-27T19:14:57.161Z,12.40
2018-12-27T19:17:29.368Z,9.13
2018-12-27T19:19:56.417Z,10.33
2018-12-27T19:22:34.484Z,8.83
2018-12-27T19:25:01.413Z,9.67
2018-12-27T19:27:28.395Z,7.07
2018-12-27T19:29:55.389Z,7.93
2018-12-27T19:32:22.415Z,8.70
2018-12-27T19:34:49.363Z,9.27
2018-12-27T19:37:16.330Z,9.77
2018-12-27T19:39:43.258Z,10.27
2018-12-27T19:42:10.179Z,9.33
2018-12-27T19:44:37.203Z,8.80
2018-12-27T19:47:04.154Z,8.97
2018-12-27T19:49:31.305Z,10.30
2018-12-27T19:51:58.324Z,11.67
2018-12-27T19:54:31.755Z,8.20
2018-12-27T19:56:54.188Z,9.40
2018-12-27T19:59:21.148Z,9.50
2018-12-27T20:01:48.123Z,10.10
2018-12-27T20:04:16.866Z,10.23
2018-12-27T20:06:43.817Z,9.30
2018-12-27T20:09:12.178Z,10.37
2018-12-27T20:11:39.227Z,10.90
2018-12-27T20:14:06.363Z,9.50
2018-12-27T20:16:33.448Z,10.83
2018-12-27T20:19:00.812Z,9.70
2018-12-27T20:21:27.758Z,10.67
2018-12-27T20:23:54.771Z,10.53
2018-12-27T20:26:21.772Z,11.40
2018-12-27T20:28:48.668Z,11.13
2018-12-27T20:31:15.542Z,9.17
2018-12-27T20:33:42.512Z,8.17
2018-12-27T20:36:09.531Z,8.07
2018-12-27T20:38:36.807Z,9.77
2018-12-27T20:41:03.622Z,11.83
2018-12-27T20:43:30.611Z,8.73
2018-12-27T20:45:57.563Z,8.70
2018-12-27T20:48:24.636Z,11.47
2018-12-27T20:50:51.621Z,9.80
2018-12-27T20:53:20.700Z,8.47
2018-12-27T20:55:50.004Z,6.80
2018-12-27T20:58:19.230Z,6.83
2018-12-27T21:00:50.064Z,7.17
2018-12-27T21:03:23.837Z,6.34
2018-12-27T21:05:53.193Z,7.43
2018-12-27T21:08:22.764Z,6.93
2018-12-27T21:10:51.817Z,5.47
2018-12-27T21:13:21.068Z,6.40
2018-12-27T21:15:50.253Z,7.23
2018-12-27T21:18:19.521Z,5.80
2018-12-27T21:20:48.919Z,7.97
2018-12-27T21:23:18.154Z,4.63
2018-12-27T21:25:47.273Z,9.30
2018-12-27T21:28:16.346Z,8.17
2018-12-27T21:30:45.593Z,9.23
2018-12-27T21:33:15.084Z,10.03
2018-12-27T21:35:44.340Z,11.27
2018-12-27T21:38:13.671Z,11.40
2018-12-27T21:40:42.743Z,11.63
2018-12-27T21:43:11.881Z,13.60
2018-12-27T21:45:40.974Z,12.27
2018-12-27T21:48:10.124Z,10.27
2018-12-27T21:50:39.221Z,10.03
2018-12-27T21:53:08.322Z,11.57
2018-12-27T21:55:37.424Z,9.23
2018-12-27T21:58:06.536Z,9.77
2018-12-27T22:00:35.763Z,9.73
2018-12-27T22:03:05.004Z,8.57
2018-12-27T22:05:34.039Z,8.27
2018-12-27T22:08:04.515Z,8.97
2018-12-27T22:10:33.680Z,8.40
2018-12-27T22:13:02.783Z,5.20
2018-12-27T22:15:31.871Z,5.43
2018-12-27T22:18:01.256Z,6.47
2018-12-27T22:20:30.338Z,7.70
2018-12-27T22:22:59.534Z,10.17
2018-12-27T22:25:28.720Z,12.07
2018-12-27T22:27:58.154Z,13.47
2018-12-27T22:30:27.593Z,11.57
2018-12-27T22:32:56.776Z,11.63
2018-12-27T22:35:25.977Z,12.70
2018-12-27T22:37:55.102Z,9.73
2018-12-27T22:40:24.051Z,11.23
2018-12-27T22:42:53.190Z,11.73
2018-12-27T22:45:22.355Z,10.93
2018-12-27T22:47:51.492Z,9.20
2018-12-27T22:50:20.649Z,10.67
2018-12-27T22:52:49.775Z,7.67
2018-12-27T22:55:19.152Z,8.95
2018-12-27T22:57:49.105Z,8.27
2018-12-27T23:00:27.601Z,9.77
2018-12-27T23:02:56.644Z,7.50
2018-12-27T23:05:26.023Z,7.43
2018-12-27T23:07:55.184Z,8.20
2018-12-27T23:10:24.301Z,9.70
2018-12-27T23:12:53.336Z,9.27
2018-12-27T23:15:22.412Z,12.33
2018-12-27T23:17:52.888Z,11.83
2018-12-27T23:20:21.996Z,14.10
2018-12-27T23:22:51.060Z,12.10
2018-12-27T23:25:20.124Z,14.77
2018-12-27T23:27:49.155Z,15.20
2018-12-27T23:30:18.315Z,15.47
2018-12-27T23:32:47.387Z,14.93
2018-12-27T23:35:16.518Z,14.80
2018-12-27T23:37:45.621Z,16.70
2018-12-27T23:40:14.746Z,17.93
2018-12-27T23:42:43.904Z,16.87
2018-12-27T23:45:13.035Z,16.77
2018-12-27T23:47:42.063Z,16.53
2018-12-27T23:50:11.160Z,19.17
2018-12-27T23:52:40.131Z,17.13
2018-12-27T23:55:09.151Z,17.57
2018-12-27T23:57:38.281Z,18.70
